sensor_id;sensor_type;location;lat;lon;timestamp;P1;durP1;ratioP1;P2;durP2;ratioP2
6424;SDS011;12193;42.642;23.384;2022-08-01T00:00:08;3.95;;;3.53;;
6424;SDS011;12193;42.642;23.384;2022-08-01T00:02:38;5.65;;;3.40;;
6424;SDS011;12193;42.642;23.384;2022-08-01T00:05:08;5.35;;;3.40;;
6424;SDS011;12193;42.642;23.384;2022-08-01T00:07:40;3.40;;;3.10;;
6424;SDS011;12193;42.642;23.384;2022-08-01T00:10:11;4.37;;;3.30;;
6424;SDS011;12193;42.642;23.384;2022-08-01T00:12:42;3.50;;;3.20;;
6424;SDS011;12193;42.642;23.384;2022-08-01T00:15:13;3.45;;;2.97;;
6424;SDS011;12193;42.642;23.384;2022-08-01T00:17:44;3.67;;;2.63;;
6424;SDS011;12193;42.642;23.384;2022-08-01T00:20:13;4.70;;;3.00;;
6424;SDS011;12193;42.642;23.384;2022-08-01T00:22:46;4.00;;;3.00;;
6424;SDS011;12193;42.642;23.384;2022-08-01T00:25:15;8.85;;;5.28;;
6424;SDS011;12193;42.642;23.384;2022-08-01T00:27:44;4.68;;;3.47;;
6424;SDS011;12193;42.642;23.384;2022-08-01T00:30:14;2.75;;;2.45;;
6424;SDS011;12193;42.642;23.384;2022-08-01T00:32:43;3.85;;;2.70;;
6424;SDS011;12193;42.642;23.384;2022-08-01T00:35:12;3.78;;;2.67;;
6424;SDS011;12193;42.642;23.384;2022-08-01T00:37:42;4.20;;;3.03;;
6424;SDS011;12193;42.642;23.384;2022-08-01T00:40:13;4.95;;;3.42;;
6424;SDS011;12193;42.642;23.384;2022-08-01T00:42:43;4.95;;;3.90;;
6424;SDS011;12193;42.642;23.384;2022-08-01T00:45:12;6.20;;;4.35;;
6424;SDS011;12193;42.642;23.384;2022-08-01T00:47:42;4.60;;;4.10;;
6424;SDS011;12193;42.642;23.384;2022-08-01T00:50:11;6.18;;;5.20;;
6424;SDS011;12193;42.642;23.384;2022-08-01T00:52:40;6.05;;;5.20;;
6424;SDS011;12193;42.642;23.384;2022-08-01T00:55:10;6.50;;;5.53;;
6424;SDS011;12193;42.642;23.384;2022-08-01T00:57:43;6.90;;;6.05;;
6424;SDS011;12193;42.642;23.384;2022-08-01T01:00:13;7.88;;;5.75;;
6424;SDS011;12193;42.642;23.384;2022-08-01T01:02:43;7.75;;;6.10;;
6424;SDS011;12193;42.642;23.384;2022-08-01T01:05:12;9.15;;;6.63;;
6424;SDS011;12193;42.642;23.384;2022-08-01T01:07:44;9.07;;;7.40;;
6424;SDS011;12193;42.642;23.384;2022-08-01T01:10:21;10.13;;;8.63;;
6424;SDS011;12193;42.642;23.384;2022-08-01T01:12:56;10.43;;;9.30;;
6424;SDS011;12193;42.642;23.384;2022-08-01T01:15:30;10.23;;;8.30;;
6424;SDS011;12193;42.642;23.384;2022-08-01T01:18:07;10.82;;;9.20;;
6424;SDS011;12193;42.642;23.384;2022-08-01T01:20:40;10.23;;;8.52;;
6424;SDS011;12193;42.642;23.384;2022-08-01T01:23:15;10.50;;;8.97;;
6424;SDS011;12193;42.642;23.384;2022-08-01T01:29:03;10.38;;;8.55;;
6424;SDS011;12193;42.642;23.384;2022-08-01T01:31:42;11.88;;;8.30;;
6424;SDS011;12193;42.642;23.384;2022-08-01T01:34:15;9.07;;;8.10;;
6424;SDS011;12193;42.642;23.384;2022-08-01T01:36:47;10.85;;;8.25;;
6424;SDS011;12193;42.642;23.384;2022-08-01T01:39:18;10.75;;;8.90;;
6424;SDS011;12193;42.642;23.384;2022-08-01T01:41:49;10.40;;;7.90;;
6424;SDS011;12193;42.642;23.384;2022-08-01T01:44:25;10.35;;;7.63;;
6424;SDS011;12193;42.642;23.384;2022-08-01T01:46:56;8.70;;;7.35;;
6424;SDS011;12193;42.642;23.384;2022-08-01T01:49:27;8.38;;;7.30;;
6424;SDS011;12193;42.642;23.384;2022-08-01T01:51:58;9.73;;;7.85;;
6424;SDS011;12193;42.642;23.384;2022-08-01T01:54:31;9.30;;;7.20;;
6424;SDS011;12193;42.642;23.384;2022-08-01T01:57:04;8.10;;;7.05;;
6424;SDS011;12193;42.642;23.384;2022-08-01T01:59:38;8.88;;;7.10;;
6424;SDS011;12193;42.642;23.384;2022-08-01T02:02:08;9.73;;;7.27;;
6424;SDS011;12193;42.642;23.384;2022-08-01T02:04:39;7.50;;;6.70;;
6424;SDS011;12193;42.642;23.384;2022-08-01T02:07:11;9.40;;;6.45;;
6424;SDS011;12193;42.642;23.384;2022-08-01T02:09:43;9.93;;;6.75;;
6424;SDS011;12193;42.642;23.384;2022-08-01T02:12:14;7.10;;;5.80;;
6424;SDS011;12193;42.642;23.384;2022-08-01T02:14:50;7.57;;;5.37;;
6424;SDS011;12193;42.642;23.384;2022-08-01T02:17:22;8.02;;;5.50;;
6424;SDS011;12193;42.642;23.384;2022-08-01T02:19:53;7.35;;;5.80;;
6424;SDS011;12193;42.642;23.384;2022-08-01T02:22:25;6.15;;;5.43;;
6424;SDS011;12193;42.642;23.384;2022-08-01T02:24:59;6.72;;;5.15;;
6424;SDS011;12193;42.642;23.384;2022-08-01T02:27:33;7.50;;;5.25;;
6424;SDS011;12193;42.642;23.384;2022-08-01T02:30:10;6.22;;;4.75;;
6424;SDS011;12193;42.642;23.384;2022-08-01T02:32:43;6.20;;;3.77;;
6424;SDS011;12193;42.642;23.384;2022-08-01T02:35:18;4.70;;;3.78;;
6424;SDS011;12193;42.642;23.384;2022-08-01T02:37:51;4.70;;;3.60;;
6424;SDS011;12193;42.642;23.384;2022-08-01T02:40:22;4.28;;;3.35;;
6424;SDS011;12193;42.642;23.384;2022-08-01T02:42:55;5.88;;;3.42;;
6424;SDS011;12193;42.642;23.384;2022-08-01T02:45:29;5.20;;;3.58;;
6424;SDS011;12193;42.642;23.384;2022-08-01T02:48:05;4.38;;;3.70;;
6424;SDS011;12193;42.642;23.384;2022-08-01T02:50:38;4.72;;;3.70;;
6424;SDS011;12193;42.642;23.384;2022-08-01T02:53:11;4.43;;;3.70;;
6424;SDS011;12193;42.642;23.384;2022-08-01T02:55:42;5.03;;;3.92;;
6424;SDS011;12193;42.642;23.384;2022-08-01T03:01:06;7.07;;;4.60;;
6424;SDS011;12193;42.642;23.384;2022-08-01T03:03:37;5.88;;;4.80;;
6424;SDS011;12193;42.642;23.384;2022-08-01T03:06:07;5.97;;;4.37;;
6424;SDS011;12193;42.642;23.384;2022-08-01T03:08:37;5.60;;;4.50;;
6424;SDS011;12193;42.642;23.384;2022-08-01T03:11:08;9.40;;;4.70;;
6424;SDS011;12193;42.642;23.384;2022-08-01T03:13:40;6.17;;;4.47;;
6424;SDS011;12193;42.642;23.384;2022-08-01T03:16:14;6.33;;;4.57;;
6424;SDS011;12193;42.642;23.384;2022-08-01T03:18:45;6.75;;;4.63;;
6424;SDS011;12193;42.642;23.384;2022-08-01T03:21:15;5.80;;;4.80;;
6424;SDS011;12193;42.642;23.384;2022-08-01T03:23:47;6.90;;;4.78;;
6424;SDS011;12193;42.642;23.384;2022-08-01T03:26:23;5.78;;;4.45;;
6424;SDS011;12193;42.642;23.384;2022-08-01T03:28:55;6.60;;;4.50;;
6424;SDS011;12193;42.642;23.384;2022-08-01T03:31:30;7.15;;;4.60;;
6424;SDS011;12193;42.642;23.384;2022-08-01T03:34:00;5.90;;;4.80;;
6424;SDS011;12193;42.642;23.384;2022-08-01T03:36:29;8.23;;;5.00;;
6424;SDS011;12193;42.642;23.384;2022-08-01T03:39:03;5.93;;;4.88;;
6424;SDS011;12193;42.642;23.384;2022-08-01T03:41:37;7.07;;;4.53;;
6424;SDS011;12193;42.642;23.384;2022-08-01T03:44:10;6.30;;;4.57;;
6424;SDS011;12193;42.642;23.384;2022-08-01T03:46:46;7.38;;;4.20;;
6424;SDS011;12193;42.642;23.384;2022-08-01T03:49:20;7.45;;;5.22;;
6424;SDS011;12193;42.642;23.384;2022-08-01T03:51:52;7.43;;;4.65;;
6424;SDS011;12193;42.642;23.384;2022-08-01T03:54:23;5.32;;;3.85;;
6424;SDS011;12193;42.642;23.384;2022-08-01T03:56:56;9.57;;;5.40;;
6424;SDS011;12193;42.642;23.384;2022-08-01T03:59:26;4.95;;;4.07;;
6424;SDS011;12193;42.642;23.384;2022-08-01T04:01:59;4.53;;;3.60;;
6424;SDS011;12193;42.642;23.384;2022-08-01T04:04:30;6.00;;;3.50;;
6424;SDS011;12193;42.642;23.384;2022-08-01T04:06:59;6.07;;;3.60;;
6424;SDS011;12193;42.642;23.384;2022-08-01T04:09:32;5.80;;;3.65;;
6424;SDS011;12193;42.642;23.384;2022-08-01T04:12:01;4.80;;;3.43;;
6424;SDS011;12193;42.642;23.384;2022-08-01T04:14:31;5.03;;;3.75;;
6424;SDS011;12193;42.642;23.384;2022-08-01T04:17:03;5.38;;;3.85;;
6424;SDS011;12193;42.642;23.384;2022-08-01T04:19:32;5.13;;;3.70;;
6424;SDS011;12193;42.642;23.384;2022-08-01T04:22:02;4.53;;;3.88;;
6424;SDS011;12193;42.642;23.384;2022-08-01T04:24:31;5.25;;;3.83;;
6424;SDS011;12193;42.642;23.384;2022-08-01T04:27:06;5.15;;;3.65;;
6424;SDS011;12193;42.642;23.384;2022-08-01T04:29:39;6.72;;;3.70;;
6424;SDS011;12193;42.642;23.384;2022-08-01T04:32:13;6.20;;;3.60;;
6424;SDS011;12193;42.642;23.384;2022-08-01T04:34:43;6.97;;;3.80;;
6424;SDS011;12193;42.642;23.384;2022-08-01T04:37:15;7.30;;;3.80;;
6424;SDS011;12193;42.642;23.384;2022-08-01T04:39:45;8.57;;;3.90;;
6424;SDS011;12193;42.642;23.384;2022-08-01T04:42:17;7.28;;;3.92;;
6424;SDS011;12193;42.642;23.384;2022-08-01T04:44:47;6.40;;;4.30;;
6424;SDS011;12193;42.642;23.384;2022-08-01T04:47:19;8.90;;;4.30;;
6424;SDS011;12193;42.642;23.384;2022-08-01T04:49:49;6.23;;;4.00;;
6424;SDS011;12193;42.642;23.384;2022-08-01T04:52:18;6.88;;;3.80;;
6424;SDS011;12193;42.642;23.384;2022-08-01T04:54:48;7.20;;;3.67;;
6424;SDS011;12193;42.642;23.384;2022-08-01T04:57:17;4.35;;;3.88;;
6424;SDS011;12193;42.642;23.384;2022-08-01T04:59:46;6.40;;;4.32;;
6424;SDS011;12193;42.642;23.384;2022-08-01T05:02:25;10.95;;;5.22;;
6424;SDS011;12193;42.642;23.384;2022-08-01T05:04:55;8.15;;;4.68;;
6424;SDS011;12193;42.642;23.384;2022-08-01T05:07:24;7.13;;;4.93;;
6424;SDS011;12193;42.642;23.384;2022-08-01T05:09:53;7.10;;;5.00;;
6424;SDS011;12193;42.642;23.384;2022-08-01T05:12:22;9.05;;;4.50;;
6424;SDS011;12193;42.642;23.384;2022-08-01T05:14:52;7.70;;;4.57;;
6424;SDS011;12193;42.642;23.384;2022-08-01T05:17:21;11.60;;;5.05;;
6424;SDS011;12193;42.642;23.384;2022-08-01T05:19:53;8.57;;;5.07;;
6424;SDS011;12193;42.642;23.384;2022-08-01T05:22:23;6.45;;;4.82;;
6424;SDS011;12193;42.642;23.384;2022-08-01T05:24:52;8.00;;;4.80;;
6424;SDS011;12193;42.642;23.384;2022-08-01T05:27:22;8.55;;;4.90;;
6424;SDS011;12193;42.642;23.384;2022-08-01T05:29:52;7.82;;;4.60;;
6424;SDS011;12193;42.642;23.384;2022-08-01T05:32:21;7.97;;;4.33;;
6424;SDS011;12193;42.642;23.384;2022-08-01T05:34:53;8.65;;;4.60;;
6424;SDS011;12193;42.642;23.384;2022-08-01T05:37:22;10.57;;;4.60;;
6424;SDS011;12193;42.642;23.384;2022-08-01T05:39:51;11.50;;;4.43;;
6424;SDS011;12193;42.642;23.384;2022-08-01T05:42:20;9.30;;;4.25;;
6424;SDS011;12193;42.642;23.384;2022-08-01T05:44:50;8.23;;;4.30;;
6424;SDS011;12193;42.642;23.384;2022-08-01T05:47:19;6.88;;;4.60;;
6424;SDS011;12193;42.642;23.384;2022-08-01T05:49:48;8.68;;;4.20;;
6424;SDS011;12193;42.642;23.384;2022-08-01T05:52:20;5.85;;;4.00;;
6424;SDS011;12193;42.642;23.384;2022-08-01T05:54:49;7.28;;;4.55;;
6424;SDS011;12193;42.642;23.384;2022-08-01T05:57:18;6.83;;;4.03;;
6424;SDS011;12193;42.642;23.384;2022-08-01T05:59:48;6.27;;;4.07;;
6424;SDS011;12193;42.642;23.384;2022-08-01T06:02:17;7.22;;;3.90;;
6424;SDS011;12193;42.642;23.384;2022-08-01T06:04:46;6.57;;;3.70;;
6424;SDS011;12193;42.642;23.384;2022-08-01T06:07:15;7.35;;;3.92;;
6424;SDS011;12193;42.642;23.384;2022-08-01T06:09:47;7.68;;;4.13;;
6424;SDS011;12193;42.642;23.384;2022-08-01T06:12:17;6.22;;;4.22;;
6424;SDS011;12193;42.642;23.384;2022-08-01T06:14:46;5.88;;;4.03;;
6424;SDS011;12193;42.642;23.384;2022-08-01T06:17:15;4.95;;;3.60;;
6424;SDS011;12193;42.642;23.384;2022-08-01T06:19:44;9.77;;;3.87;;
6424;SDS011;12193;42.642;23.384;2022-08-01T06:22:13;5.72;;;3.70;;
6424;SDS011;12193;42.642;23.384;2022-08-01T06:24:42;6.10;;;3.38;;
6424;SDS011;12193;42.642;23.384;2022-08-01T06:27:15;6.88;;;3.30;;
6424;SDS011;12193;42.642;23.384;2022-08-01T06:29:44;3.90;;;2.80;;
6424;SDS011;12193;42.642;23.384;2022-08-01T06:32:13;5.47;;;3.13;;
6424;SDS011;12193;42.642;23.384;2022-08-01T06:34:42;11.80;;;4.03;;
6424;SDS011;12193;42.642;23.384;2022-08-01T06:37:12;7.60;;;3.77;;
6424;SDS011;12193;42.642;23.384;2022-08-01T06:39:41;5.95;;;3.45;;
6424;SDS011;12193;42.642;23.384;2022-08-01T06:42:10;8.43;;;3.83;;
6424;SDS011;12193;42.642;23.384;2022-08-01T06:44:43;4.38;;;3.22;;
6424;SDS011;12193;42.642;23.384;2022-08-01T06:47:12;4.68;;;3.13;;
6424;SDS011;12193;42.642;23.384;2022-08-01T06:49:41;6.40;;;3.55;;
6424;SDS011;12193;42.642;23.384;2022-08-01T06:52:11;7.05;;;3.40;;
6424;SDS011;12193;42.642;23.384;2022-08-01T06:54:40;9.23;;;3.80;;
6424;SDS011;12193;42.642;23.384;2022-08-01T06:57:09;5.27;;;3.83;;
6424;SDS011;12193;42.642;23.384;2022-08-01T06:59:38;5.25;;;3.38;;
6424;SDS011;12193;42.642;23.384;2022-08-01T07:02:10;4.57;;;3.20;;
6424;SDS011;12193;42.642;23.384;2022-08-01T07:04:40;4.45;;;3.15;;
6424;SDS011;12193;42.642;23.384;2022-08-01T07:07:09;4.70;;;3.67;;
6424;SDS011;12193;42.642;23.384;2022-08-01T07:09:38;5.47;;;3.47;;
6424;SDS011;12193;42.642;23.384;2022-08-01T07:12:08;7.07;;;3.90;;
6424;SDS011;12193;42.642;23.384;2022-08-01T07:14:37;5.70;;;3.40;;
6424;SDS011;12193;42.642;23.384;2022-08-01T07:17:07;6.22;;;3.63;;
6424;SDS011;12193;42.642;23.384;2022-08-01T07:19:39;6.70;;;3.63;;
6424;SDS011;12193;42.642;23.384;2022-08-01T07:22:08;4.72;;;3.42;;
6424;SDS011;12193;42.642;23.384;2022-08-01T07:25:02;4.57;;;3.38;;
